Time;durP1;ratioP1;P1;durP2;ratioP2;P2;SDS_P1;SDS_P2;PMS_P1;PMS_P2;Temp;Humidity;BMP_temperature;BMP_pressure;BME280_temperature;BME280_humidity;BME280_pressure;Samples;Min_cycle;Max_cycle;Signal;HPM_P1;HPM_P2
2022/05/02 00:00:38;;;;;;;31.08;14.57;;;;;;;;;;5034787;28;20049;-68
2022/05/02 00:03:04;;;;;;;32.20;15.75;;;;;;;;;;5035307;28;20133;-68
2022/05/02 00:05:29;;;;;;;28.17;13.63;;;;;;;;;;5035295;28;20037;-68
2022/05/02 00:07:55;;;;;;;26.45;13.18;;;;;;;;;;5034934;28;20034;-68
2022/05/02 00:10:20;;;;;;;28.05;13.02;;;;;;;;;;5034621;28;20041;-68
2022/05/02 00:12:46;;;;;;;29.80;13.88;;;;;;;;;;5035134;28;20030;-68
2022/05/02 00:15:12;;;;;;;27.95;14.45;;;;;;;;;;5035085;28;20036;-68
2022/05/02 00:20:26;;;;;;;29.75;14.50;;;;;;;;;;5034372;28;20121;-68
2022/05/02 00:22:52;;;;;;;28.88;14.20;;;;;;;;;;5034929;28;20037;-68
2022/05/02 00:25:18;;;;;;;28.67;14.15;;;;;;;;;;5034502;28;20039;-68
2022/05/02 00:27:43;;;;;;;29.35;14.68;;;;;;;;;;5032646;28;20096;-68
2022/05/02 00:30:10;;;;;;;31.75;13.60;;;;;;;;;;5034569;28;20041;-68
2022/05/02 00:32:36;;;;;;;31.05;14.52;;;;;;;;;;5034955;28;20029;-68
2022/05/02 00:35:03;;;;;;;33.17;14.90;;;;;;;;;;5034718;28;20381;-68
2022/05/02 00:37:29;;;;;;;30.50;14.65;;;;;;;;;;5034506;28;20404;-68
2022/05/02 00:39:54;;;;;;;32.78;14.40;;;;;;;;;;5034471;28;20112;-68
2022/05/02 00:42:20;;;;;;;27.98;13.30;;;;;;;;;;5034553;28;20017;-68
2022/05/02 00:44:46;;;;;;;35.42;14.80;;;;;;;;;;5034194;28;20478;-68
2022/05/02 00:47:15;;;;;;;39.15;15.25;;;;;;;;;;5033585;28;20028;-68
2022/05/02 00:49:41;;;;;;;38.70;14.23;;;;;;;;;;5034293;28;20092;-68
2022/05/02 00:52:07;;;;;;;35.95;16.60;;;;;;;;;;5034030;28;20025;-68
2022/05/02 00:54:33;;;;;;;37.42;16.23;;;;;;;;;;5034180;28;20029;-68
2022/05/02 00:56:59;;;;;;;31.83;14.65;;;;;;;;;;5049487;28;20030;-68
2022/05/02 00:59:25;;;;;;;33.83;14.45;;;;;;;;;;5033963;28;20056;-68
2022/05/02 01:01:50;;;;;;;34.95;15.77;;;;;;;;;;5032822;28;20025;-68
2022/05/02 01:04:16;;;;;;;31.10;14.75;;;;;;;;;;5033866;28;20108;-68
2022/05/02 01:09:25;;;;;;;43.10;14.43;;;;;;;;;;5033308;28;20029;-68
2022/05/02 01:11:50;;;;;;;33.97;14.68;;;;;;;;;;5049477;28;20392;-68
2022/05/02 01:14:16;;;;;;;48.30;15.57;;;;;;;;;;5033488;28;20071;-68
2022/05/02 01:16:41;;;;;;;49.08;17.38;;;;;;;;;;5033908;28;20044;-68
2022/05/02 01:19:07;;;;;;;41.78;16.08;;;;;;;;;;5033854;28;20102;-68
2022/05/02 01:21:32;;;;;;;40.63;15.95;;;;;;;;;;5033568;28;20025;-68
2022/05/02 01:24:00;;;;;;;50.38;16.48;;;;;;;;;;5032499;28;20033;-68
2022/05/02 01:26:25;;;;;;;41.08;16.58;;;;;;;;;;5033583;28;20112;-68
2022/05/02 01:28:53;;;;;;;46.40;17.80;;;;;;;;;;5033983;28;20522;-68
2022/05/02 01:31:19;;;;;;;44.40;16.27;;;;;;;;;;5033367;28;20049;-68
2022/05/02 01:33:45;;;;;;;37.15;16.15;;;;;;;;;;5033645;28;20445;-68
2022/05/02 01:36:11;;;;;;;42.97;16.17;;;;;;;;;;5032461;28;20060;-68
2022/05/02 01:38:37;;;;;;;49.78;18.52;;;;;;;;;;5033567;28;20107;-68
2022/05/02 01:41:04;;;;;;;42.08;16.73;;;;;;;;;;5032287;28;20132;-68
2022/05/02 01:43:31;;;;;;;37.40;15.35;;;;;;;;;;5032952;28;20452;-68
2022/05/02 01:45:56;;;;;;;41.95;16.95;;;;;;;;;;5023101;28;20079;-68
2022/05/02 01:48:22;;;;;;;36.95;15.85;;;;;;;;;;5032794;28;20033;-68
2022/05/02 01:50:47;;;;;;;44.17;15.95;;;;;;;;;;5032765;28;20457;-68
2022/05/02 01:53:12;;;;;;;36.85;15.38;;;;;;;;;;5032172;28;20025;-68
2022/05/02 01:55:38;;;;;;;41.70;17.45;;;;;;;;;;5032209;28;20128;-68
2022/05/02 01:58:03;;;;;;;34.35;15.73;;;;;;;;;;5032689;28;20127;-68
2022/05/02 02:00:29;;;;;;;35.63;14.50;;;;;;;;;;5032576;28;20072;-68
2022/05/02 02:02:54;;;;;;;32.50;15.20;;;;;;;;;;5032878;28;20038;-68
2022/05/02 02:08:04;;;;;;;50.42;16.95;;;;;;;;;;5032792;28;20040;-68
2022/05/02 02:10:29;;;;;;;52.10;16.98;;;;;;;;;;5033021;28;20042;-68
2022/05/02 02:12:55;;;;;;;69.38;18.77;;;;;;;;;;5033174;28;20034;-68
2022/05/02 02:15:20;;;;;;;53.70;17.50;;;;;;;;;;5033062;28;20412;-68
2022/05/02 02:17:45;;;;;;;55.70;19.35;;;;;;;;;;5033104;28;20112;-68
2022/05/02 02:20:11;;;;;;;56.08;18.35;;;;;;;;;;5032944;28;20105;-68
2022/05/02 02:22:37;;;;;;;53.58;17.08;;;;;;;;;;5032987;28;20070;-68
2022/05/02 02:25:04;;;;;;;55.80;18.08;;;;;;;;;;5033053;28;20041;-68
2022/05/02 02:27:30;;;;;;;67.80;19.35;;;;;;;;;;5033005;28;20093;-68
2022/05/02 02:29:55;;;;;;;51.97;17.92;;;;;;;;;;5032898;28;20037;-68
2022/05/02 02:32:21;;;;;;;51.30;16.30;;;;;;;;;;5032446;28;20068;-68
2022/05/02 02:34:46;;;;;;;51.40;17.02;;;;;;;;;;5032696;28;20441;-68
2022/05/02 02:37:12;;;;;;;50.63;17.00;;;;;;;;;;5032558;28;20036;-68
2022/05/02 02:39:37;;;;;;;43.40;16.52;;;;;;;;;;5032001;28;20113;-68
2022/05/02 02:42:03;;;;;;;45.38;16.42;;;;;;;;;;5032625;28;20022;-68
2022/05/02 02:44:28;;;;;;;48.05;16.90;;;;;;;;;;5032578;28;20037;-68
2022/05/02 02:46:54;;;;;;;47.08;17.40;;;;;;;;;;5032979;28;20048;-68
2022/05/02 02:49:19;;;;;;;44.75;16.60;;;;;;;;;;5031212;28;20032;-68
2022/05/02 02:51:44;;;;;;;44.28;16.52;;;;;;;;;;5031776;28;20075;-68
2022/05/02 02:54:10;;;;;;;35.83;15.80;;;;;;;;;;5032604;28;20045;-68
2022/05/02 02:56:35;;;;;;;39.30;15.55;;;;;;;;;;5032327;28;20029;-68
2022/05/02 02:59:00;;;;;;;38.53;15.38;;;;;;;;;;5032789;28;20034;-68
2022/05/02 03:01:26;;;;;;;34.05;14.65;;;;;;;;;;5032111;28;20052;-68
2022/05/02 03:03:51;;;;;;;39.53;14.20;;;;;;;;;;5032649;28;20025;-68
2022/05/02 03:06:17;;;;;;;41.15;15.00;;;;;;;;;;5032670;28;20453;-68
2022/05/02 03:08:44;;;;;;;49.63;16.92;;;;;;;;;;5032561;28;20049;-68
2022/05/02 03:11:10;;;;;;;45.88;15.93;;;;;;;;;;5034250;28;20030;-68
2022/05/02 03:13:36;;;;;;;44.97;15.55;;;;;;;;;;5036211;28;20068;-68
2022/05/02 03:16:03;;;;;;;44.80;16.02;;;;;;;;;;5036345;28;20069;-68
2022/05/02 03:18:28;;;;;;;43.03;16.77;;;;;;;;;;5036056;28;20022;-68
2022/05/02 03:20:54;;;;;;;40.10;14.57;;;;;;;;;;5036273;28;20028;-68
2022/05/02 03:23:20;;;;;;;41.03;16.27;;;;;;;;;;5035674;28;20080;-68
2022/05/02 03:25:45;;;;;;;41.38;16.10;;;;;;;;;;5035853;28;20032;-68
2022/05/02 03:28:11;;;;;;;38.65;15.13;;;;;;;;;;5035507;28;20051;-68
2022/05/02 03:30:36;;;;;;;39.90;15.63;;;;;;;;;;5035928;28;20034;-68
2022/05/02 03:33:02;;;;;;;32.28;13.20;;;;;;;;;;5035370;28;20100;-68
2022/05/02 03:35:28;;;;;;;33.53;13.65;;;;;;;;;;5035747;28;20033;-68
2022/05/02 03:37:54;;;;;;;32.90;13.80;;;;;;;;;;5035473;28;20473;-68
2022/05/02 03:40:19;;;;;;;32.92;13.15;;;;;;;;;;5035760;28;20087;-68
2022/05/02 03:42:44;;;;;;;34.17;13.52;;;;;;;;;;5034687;28;20033;-68
2022/05/02 03:45:10;;;;;;;34.85;13.90;;;;;;;;;;5033885;28;20044;-68
2022/05/02 03:47:35;;;;;;;36.03;14.48;;;;;;;;;;5035138;28;20022;-68
2022/05/02 03:50:01;;;;;;;34.42;13.73;;;;;;;;;;5035222;28;20025;-68
2022/05/02 03:52:26;;;;;;;37.50;15.25;;;;;;;;;;5023864;28;20042;-68
2022/05/02 03:54:52;;;;;;;38.28;15.57;;;;;;;;;;5035062;28;20083;-68
2022/05/02 03:57:18;;;;;;;34.05;14.50;;;;;;;;;;5034899;28;20068;-68
2022/05/02 03:59:43;;;;;;;32.22;13.98;;;;;;;;;;5034842;28;20091;-68
2022/05/02 04:02:10;;;;;;;36.20;14.85;;;;;;;;;;5034753;28;20057;-68
2022/05/02 04:04:35;;;;;;;32.25;13.63;;;;;;;;;;5035135;28;20049;-68
2022/05/02 04:07:00;;;;;;;31.67;14.27;;;;;;;;;;5035224;28;20125;-68
2022/05/02 04:09:26;;;;;;;31.85;13.07;;;;;;;;;;5035005;28;20029;-68
2022/05/02 04:11:52;;;;;;;31.77;12.80;;;;;;;;;;5035087;28;20045;-68
2022/05/02 04:14:17;;;;;;;30.77;12.70;;;;;;;;;;5034947;28;20465;-68
2022/05/02 04:16:42;;;;;;;24.77;11.77;;;;;;;;;;5035035;28;20026;-68
2022/05/02 04:19:08;;;;;;;31.25;13.40;;;;;;;;;;5034939;28;20409;-68
2022/05/02 04:21:33;;;;;;;27.98;11.98;;;;;;;;;;5034957;28;20086;-68
2022/05/02 04:23:59;;;;;;;24.30;12.57;;;;;;;;;;5034713;28;20017;-68
2022/05/02 04:26:25;;;;;;;24.83;11.75;;;;;;;;;;5033181;28;20045;-68
2022/05/02 04:28:50;;;;;;;28.90;13.30;;;;;;;;;;5034879;28;20044;-68
2022/05/02 04:31:15;;;;;;;31.55;14.10;;;;;;;;;;5034502;28;20471;-68
2022/05/02 04:33:41;;;;;;;30.13;13.52;;;;;;;;;;5034780;28;20067;-68
2022/05/02 04:36:07;;;;;;;46.85;16.33;;;;;;;;;;5034443;28;20044;-68
2022/05/02 04:38:33;;;;;;;41.33;16.38;;;;;;;;;;5034663;28;20103;-68
2022/05/02 04:40:58;;;;;;;37.47;14.88;;;;;;;;;;5034533;28;20077;-68
2022/05/02 04:43:24;;;;;;;43.80;14.75;;;;;;;;;;5034248;28;20053;-68
2022/05/02 04:45:50;;;;;;;46.88;14.35;;;;;;;;;;5034509;28;20032;-68
2022/05/02 04:48:16;;;;;;;31.55;14.38;;;;;;;;;;5034260;28;20041;-68
2022/05/02 04:50:41;;;;;;;30.35;13.02;;;;;;;;;;5034465;28;20038;-68
2022/05/02 04:53:06;;;;;;;29.63;11.95;;;;;;;;;;5034289;28;20025;-68
2022/05/02 04:55:32;;;;;;;34.33;13.50;;;;;;;;;;5034163;28;20029;-68
2022/05/02 04:57:57;;;;;;;27.45;12.43;;;;;;;;;;5034318;28;20065;-68
2022/05/02 05:00:23;;;;;;;30.30;13.35;;;;;;;;;;5033828;28;20076;-68
2022/05/02 05:02:48;;;;;;;30.90;13.18;;;;;;;;;;5034114;28;20121;-68
2022/05/02 05:05:14;;;;;;;27.48;12.82;;;;;;;;;;5033967;28;20052;-68
2022/05/02 05:07:39;;;;;;;30.65;13.23;;;;;;;;;;5033319;28;20021;-68
2022/05/02 05:10:07;;;;;;;37.20;13.90;;;;;;;;;;5033902;28;20052;-68
2022/05/02 05:12:40;;;;;;;29.75;13.05;;;;;;;;;;5031024;28;20052;-68
2022/05/02 05:18:27;;;;;;;37.47;13.50;;;;;;;;;;5025780;28;20400;-68
2022/05/02 05:21:14;;;;;;;34.90;12.23;;;;;;;;;;5048029;28;20041;-68
2022/05/02 05:23:48;;;;;;;26.92;12.65;;;;;;;;;;5033449;28;20485;-68
2022/05/02 05:26:35;;;;;;;35.55;13.27;;;;;;;;;;5032740;28;20029;-68
2022/05/02 05:29:25;;;;;;;41.08;13.27;;;;;;;;;;5033377;28;20473;-68
2022/05/02 05:32:13;;;;;;;41.10;14.00;;;;;;;;;;5022166;28;20092;-68
2022/05/02 05:34:55;;;;;;;45.05;14.48;;;;;;;;;;5031696;28;20359;-68
2022/05/02 05:37:42;;;;;;;51.33;16.25;;;;;;;;;;5033137;28;20606;-68
2022/05/02 05:40:29;;;;;;;48.58;15.38;;;;;;;;;;5023100;28;20036;-68
2022/05/02 05:43:10;;;;;;;44.42;14.85;;;;;;;;;;5033441;28;20040;-68
2022/05/02 05:46:00;;;;;;;54.65;16.95;;;;;;;;;;5027210;28;20053;-68
2022/05/02 05:48:49;;;;;;;43.80;15.20;;;;;;;;;;5031916;28;20726;-68
2022/05/02 05:51:28;;;;;;;37.97;13.60;;;;;;;;;;5040315;28;20485;-68
2022/05/02 05:54:31;;;;;;;37.00;13.18;;;;;;;;;;5033493;28;20091;-68
2022/05/02 05:56:59;;;;;;;36.75;14.55;;;;;;;;;;5033204;28;20396;-68
2022/05/02 06:00:18;;;;;;;32.72;13.73;;;;;;;;;;5032789;28;20099;-68
2022/05/02 06:03:08;;;;;;;34.38;12.93;;;;;;;;;;5027721;28;20068;-68
2022/05/02 06:05:35;;;;;;;39.13;13.98;;;;;;;;;;5021927;28;20103;-68
2022/05/02 06:08:03;;;;;;;40.10;15.23;;;;;;;;;;5024016;28;20049;-68
2022/05/02 06:10:29;;;;;;;41.65;15.82;;;;;;;;;;5031844;28;20041;-68
2022/05/02 06:12:56;;;;;;;46.30;16.27;;;;;;;;;;5048447;28;20473;-68
2022/05/02 06:18:28;;;;;;;39.50;15.35;;;;;;;;;;5030972;28;20072;-68
2022/05/02 06:20:56;;;;;;;30.02;14.60;;;;;;;;;;5032081;28;20033;-68
2022/05/02 06:23:23;;;;;;;40.90;15.73;;;;;;;;;;5031594;28;20026;-68
2022/05/02 06:25:49;;;;;;;36.95;15.27;;;;;;;;;;5030464;28;20481;-68
2022/05/02 06:28:16;;;;;;;37.15;15.45;;;;;;;;;;5048463;28;20034;-68
2022/05/02 06:30:43;;;;;;;37.33;16.50;;;;;;;;;;5032904;28;20025;-68
2022/05/02 06:33:12;;;;;;;36.33;15.40;;;;;;;;;;5033059;28;20037;-68
2022/05/02 06:35:50;;;;;;;31.60;14.80;;;;;;;;;;5032991;28;20029;-68
2022/05/02 06:38:24;;;;;;;31.75;14.55;;;;;;;;;;5032783;28;20037;-68
2022/05/02 06:40:49;;;;;;;35.85;13.95;;;;;;;;;;5031670;28;20108;-68
2022/05/02 06:43:35;;;;;;;27.63;13.02;;;;;;;;;;5048294;28;20112;-68
2022/05/02 06:46:03;;;;;;;30.05;13.75;;;;;;;;;;5034251;28;20025;-68
2022/05/02 06:48:55;;;;;;;25.50;13.05;;;;;;;;;;5036521;28;20048;-68
2022/05/02 06:51:50;;;;;;;30.30;13.10;;;;;;;;;;5036547;28;20064;-68
2022/05/02 06:54:28;;;;;;;24.25;12.25;;;;;;;;;;5028283;28;20041;-68
2022/05/02 06:57:02;;;;;;;24.15;12.82;;;;;;;;;;5035470;28;20029;-68
2022/05/02 06:59:54;;;;;;;29.35;13.30;;;;;;;;;;5036236;28;20042;-68
2022/05/02 07:02:57;;;;;;;27.77;13.48;;;;;;;;;;5036203;28;20021;-68
2022/05/02 07:05:29;;;;;;;23.98;12.30;;;;;;;;;;5035980;28;20117;-68
2022/05/02 07:07:58;;;;;;;20.55;11.20;;;;;;;;;;5036001;28;20528;-68
2022/05/02 07:10:26;;;;;;;25.65;11.57;;;;;;;;;;5036214;28;20061;-68
2022/05/02 07:13:17;;;;;;;21.38;11.30;;;;;;;;;;5035064;28;20063;-68
2022/05/02 07:15:50;;;;;;;23.27;11.43;;;;;;;;;;5036106;28;20064;-68
2022/05/02 07:18:45;;;;;;;20.98;11.40;;;;;;;;;;5036309;28;20041;-68
2022/05/02 07:21:31;;;;;;;23.08;11.75;;;;;;;;;;5026742;28;20048;-68
2022/05/02 07:24:09;;;;;;;22.48;11.20;;;;;;;;;;5047734;28;20489;-68
2022/05/02 07:26:36;;;;;;;18.17;10.00;;;;;;;;;;5031617;28;20038;-68
2022/05/02 07:29:04;;;;;;;20.13;11.10;;;;;;;;;;5035967;28;20060;-68
2022/05/02 07:31:31;;;;;;;19.88;11.00;;;;;;;;;;5035475;28;20485;-68
2022/05/02 07:33:57;;;;;;;21.98;11.02;;;;;;;;;;5035541;28;20432;-68
2022/05/02 07:36:24;;;;;;;17.98;10.27;;;;;;;;;;5035776;28;20096;-68
2022/05/02 07:38:54;;;;;;;17.40;9.75;;;;;;;;;;5035735;28;20064;-68
2022/05/02 07:41:27;;;;;;;17.63;9.43;;;;;;;;;;5035662;28;20057;-68
2022/05/02 07:44:08;;;;;;;16.50;8.80;;;;;;;;;;5035565;28;20073;-68
2022/05/02 07:46:43;;;;;;;17.40;10.10;;;;;;;;;;5034284;28;20045;-68
2022/05/02 07:49:10;;;;;;;20.25;9.98;;;;;;;;;;5035389;28;20075;-68
2022/05/02 07:51:47;;;;;;;18.20;10.23;;;;;;;;;;5035421;28;20396;-68
2022/05/02 07:54:18;;;;;;;17.75;9.90;;;;;;;;;;5035315;28;20041;-68
2022/05/02 07:56:46;;;;;;;15.27;8.82;;;;;;;;;;5035134;28;20034;-68
2022/05/02 07:59:15;;;;;;;16.38;8.90;;;;;;;;;;5024696;28;20033;-68
2022/05/02 08:01:40;;;;;;;15.65;8.57;;;;;;;;;;5034776;28;20420;-68
2022/05/02 08:04:05;;;;;;;15.52;7.95;;;;;;;;;;5034887;28;20033;-68
2022/05/02 08:06:37;;;;;;;16.88;8.65;;;;;;;;;;5035053;28;20046;-68
2022/05/02 08:09:12;;;;;;;16.05;8.40;;;;;;;;;;5034830;28;20462;-68
2022/05/02 08:11:41;;;;;;;14.30;8.52;;;;;;;;;;5034979;28;20047;-68
2022/05/02 08:14:17;;;;;;;16.67;8.27;;;;;;;;;;5035173;28;20087;-68
2022/05/02 08:16:57;;;;;;;15.73;9.05;;;;;;;;;;5067038;28;20125;-68
2022/05/02 08:19:42;;;;;;;14.85;8.35;;;;;;;;;;5033549;28;20096;-68
2022/05/02 08:28:36;;;;;;;13.43;7.30;;;;;;;;;;5026544;28;20052;-68
2022/05/02 08:31:19;;;;;;;15.10;8.38;;;;;;;;;;5041113;28;20045;-68
2022/05/02 08:33:56;;;;;;;17.92;8.80;;;;;;;;;;5029469;28;20469;-68
2022/05/02 08:36:40;;;;;;;17.90;9.02;;;;;;;;;;5066223;28;20525;-68
2022/05/02 08:39:07;;;;;;;18.50;9.82;;;;;;;;;;5032055;28;20048;-68
2022/05/02 08:41:38;;;;;;;17.48;9.77;;;;;;;;;;5034480;28;20033;-68
2022/05/02 08:44:28;;;;;;;18.52;10.20;;;;;;;;;;5022024;28;20044;-68
2022/05/02 08:47:10;;;;;;;16.65;8.70;;;;;;;;;;5049707;28;20068;-68
2022/05/02 08:50:13;;;;;;;16.13;8.90;;;;;;;;;;5028104;28;20057;-68
2022/05/02 08:52:52;;;;;;;17.65;9.65;;;;;;;;;;5034386;28;20068;-68
2022/05/02 08:55:55;;;;;;;18.00;10.07;;;;;;;;;;5033323;28;20075;-69
2022/05/02 08:58:40;;;;;;;16.70;8.50;;;;;;;;;;5032629;28;20045;-68
2022/05/02 09:01:27;;;;;;;16.73;9.18;;;;;;;;;;5034030;28;20072;-68
2022/05/02 09:04:29;;;;;;;16.63;9.35;;;;;;;;;;5033378;28;20048;-68
2022/05/02 09:07:32;;;;;;;16.77;8.60;;;;;;;;;;5027539;28;20136;-68
2022/05/02 09:10:11;;;;;;;17.40;8.85;;;;;;;;;;5044251;28;20412;-68
2022/05/02 09:13:14;;;;;;;13.27;8.23;;;;;;;;;;5049359;28;20061;-68
2022/05/02 09:16:03;;;;;;;14.63;8.73;;;;;;;;;;5022016;28;20033;-68
2022/05/02 09:19:00;;;;;;;15.70;8.63;;;;;;;;;;5033639;28;20061;-68
2022/05/02 09:21:40;;;;;;;14.95;9.25;;;;;;;;;;5033321;28;20088;-68
2022/05/02 09:24:27;;;;;;;16.30;8.52;;;;;;;;;;5028416;28;20038;-68
2022/05/02 09:27:24;;;;;;;16.58;8.88;;;;;;;;;;5026986;28;20393;-68
2022/05/02 09:30:27;;;;;;;14.70;8.98;;;;;;;;;;5039914;28;20049;-68
2022/05/02 09:33:25;;;;;;;14.48;7.90;;;;;;;;;;5033554;28;20072;-68
2022/05/02 09:36:02;;;;;;;16.05;8.32;;;;;;;;;;5034472;28;20103;-68
2022/05/02 09:38:47;;;;;;;16.20;8.68;;;;;;;;;;5032623;28;20041;-68
2022/05/02 09:41:25;;;;;;;13.25;8.20;;;;;;;;;;5033304;28;20034;-68
2022/05/02 09:50:05;;;;;;;15.43;8.90;;;;;;;;;;5033091;28;20052;-68
2022/05/02 09:53:08;;;;;;;14.30;7.65;;;;;;;;;;5032939;28;20057;-69
2022/05/02 09:58:36;;;;;;;12.75;7.80;;;;;;;;;;5032523;28;20047;-68
2022/05/02 10:01:20;;;;;;;12.90;7.75;;;;;;;;;;5025125;28;20523;-68
2022/05/02 10:04:04;;;;;;;;;;;;;;;;;;5033524;28;20128;-68
2022/05/02 10:06:31;;;;;;;15.52;8.43;;;;;;;;;;5032811;28;20295;-68
2022/05/02 10:09:17;;;;;;;15.45;8.52;;;;;;;;;;5031873;28;20041;-68
2022/05/02 10:11:56;;;;;;;14.10;8.85;;;;;;;;;;5033034;28;20037;-68
2022/05/02 10:14:50;;;;;;;13.60;8.18;;;;;;;;;;5048435;28;20069;-68
2022/05/02 10:17:39;;;;;;;14.52;8.38;;;;;;;;;;5025086;28;20045;-68
2022/05/02 10:20:05;;;;;;;12.73;7.97;;;;;;;;;;5064987;28;20041;-69
2022/05/02 10:22:44;;;;;;;11.88;7.85;;;;;;;;;;5036958;28;20112;-68
2022/05/02 10:25:19;;;;;;;13.60;8.45;;;;;;;;;;5036979;28;20045;-68
2022/05/02 10:27:58;;;;;;;10.90;6.88;;;;;;;;;;5052591;28;20045;-68
2022/05/02 10:30:46;;;;;;;14.63;7.13;;;;;;;;;;5028982;28;20476;-68
2022/05/02 10:33:15;;;;;;;13.32;7.47;;;;;;;;;;5028544;28;20136;-68
2022/05/02 10:35:44;;;;;;;11.85;6.80;;;;;;;;;;5034174;28;20030;-68
2022/05/02 10:38:14;;;;;;;12.25;7.18;;;;;;;;;;5036694;28;20366;-68
2022/05/02 10:40:41;;;;;;;12.18;7.15;;;;;;;;;;5052154;28;20041;-68
2022/05/02 10:43:08;;;;;;;13.05;8.00;;;;;;;;;;5036919;28;20029;-68
2022/05/02 10:45:36;;;;;;;11.68;6.85;;;;;;;;;;5036586;28;20038;-68
2022/05/02 10:48:11;;;;;;;11.60;6.93;;;;;;;;;;5036807;28;20037;-68
2022/05/02 10:50:37;;;;;;;9.65;6.15;;;;;;;;;;5032654;28;20170;-69
2022/05/02 10:53:36;;;;;;;14.27;6.53;;;;;;;;;;5036232;28;20120;-68
2022/05/02 10:56:20;;;;;;;11.68;6.38;;;;;;;;;;5051975;28;20033;-68
2022/05/02 10:58:46;;;;;;;12.35;7.60;;;;;;;;;;5025235;28;20045;-68
2022/05/02 11:01:33;;;;;;;9.82;6.53;;;;;;;;;;5036086;28;20073;-68
2022/05/02 11:04:28;;;;;;;12.60;7.30;;;;;;;;;;5027060;28;20041;-68
2022/05/02 11:06:56;;;;;;;13.90;6.80;;;;;;;;;;5051857;28;20033;-68
2022/05/02 11:10:13;;;;;;;12.48;7.32;;;;;;;;;;5036125;28;20041;-68
2022/05/02 11:12:46;;;;;;;13.65;8.20;;;;;;;;;;5043188;28;20473;-68
2022/05/02 11:15:17;;;;;;;12.05;7.30;;;;;;;;;;5036154;28;20076;-68
2022/05/02 11:18:04;;;;;;;12.10;8.25;;;;;;;;;;5035442;28;20492;-69
2022/05/02 11:20:41;;;;;;;11.13;6.47;;;;;;;;;;5035891;28;20120;-68
2022/05/02 11:23:30;;;;;;;15.07;7.07;;;;;;;;;;5035875;28;20029;-68
2022/05/02 11:26:12;;;;;;;13.10;7.47;;;;;;;;;;5032208;28;20100;-68
2022/05/02 11:29:12;;;;;;;11.23;6.47;;;;;;;;;;5036071;28;20469;-68
2022/05/02 11:31:48;;;;;;;10.48;6.88;;;;;;;;;;5028926;28;20504;-68
2022/05/02 11:34:33;;;;;;;10.00;5.97;;;;;;;;;;5034692;28;20044;-68
2022/05/02 11:36:59;;;;;;;12.00;5.72;;;;;;;;;;5034472;28;20453;-68
2022/05/02 11:39:48;;;;;;;8.75;6.05;;;;;;;;;;5035608;28;20029;-69
2022/05/02 11:42:18;;;;;;;9.90;5.93;;;;;;;;;;5035744;28;20037;-68
2022/05/02 11:44:55;;;;;;;10.35;6.25;;;;;;;;;;5033862;28;20037;-68
2022/05/02 11:47:51;;;;;;;10.18;6.22;;;;;;;;;;5035445;28;20034;-68
2022/05/02 11:50:21;;;;;;;10.55;6.65;;;;;;;;;;5035437;28;20018;-68
2022/05/02 11:52:52;;;;;;;9.73;6.40;;;;;;;;;;5035519;28;20053;-68
2022/05/02 11:55:18;;;;;;;9.80;5.85;;;;;;;;;;5035487;28;20092;-68
2022/05/02 11:57:51;;;;;;;9.30;5.68;;;;;;;;;;5033878;28;20400;-68
2022/05/02 12:00:17;;;;;;;13.85;6.72;;;;;;;;;;5035063;28;20053;-68
2022/05/02 12:02:46;;;;;;;8.32;4.97;;;;;;;;;;5050443;28;20389;-69
2022/05/02 12:05:17;;;;;;;7.05;4.93;;;;;;;;;;5035252;28;20485;-69
2022/05/02 12:07:54;;;;;;;7.68;4.53;;;;;;;;;;5035168;28;20069;-68
2022/05/02 12:10:22;;;;;;;10.43;5.45;;;;;;;;;;5035024;28;20022;-68
2022/05/02 12:12:51;;;;;;;7.63;4.65;;;;;;;;;;5067096;28;20425;-68
2022/05/02 12:15:18;;;;;;;7.10;4.60;;;;;;;;;;5050193;28;20787;-68
2022/05/02 12:18:04;;;;;;;7.53;4.22;;;;;;;;;;5033898;28;20025;-68
2022/05/02 12:20:31;;;;;;;6.88;4.70;;;;;;;;;;5033540;28;20080;-68
2022/05/02 12:23:10;;;;;;;8.07;4.80;;;;;;;;;;5032203;28;20039;-68
2022/05/02 12:25:47;;;;;;;9.73;4.63;;;;;;;;;;5034783;28;20408;-69
2022/05/02 12:28:12;;;;;;;10.55;4.38;;;;;;;;;;5033658;28;20029;-69
2022/05/02 12:30:39;;;;;;;9.00;4.78;;;;;;;;;;5034786;28;20038;-69
2022/05/02 12:33:06;;;;;;;8.27;4.40;;;;;;;;;;5034874;28;20037;-68
2022/05/02 12:35:40;;;;;;;6.85;4.15;;;;;;;;;;5066722;28;20033;-69
2022/05/02 12:38:24;;;;;;;7.88;4.20;;;;;;;;;;5066536;28;20113;-69
2022/05/02 12:41:01;;;;;;;7.82;4.53;;;;;;;;;;5034765;28;20079;-68
2022/05/02 12:43:29;;;;;;;9.70;3.78;;;;;;;;;;5033257;28;20124;-69
2022/05/02 12:45:55;;;;;;;6.63;4.43;;;;;;;;;;5033110;28;20047;-69
2022/05/02 12:48:22;;;;;;;8.40;3.90;;;;;;;;;;5049689;28;20038;-69
2022/05/02 12:50:49;;;;;;;9.15;4.10;;;;;;;;;;5034204;28;20405;-68
2022/05/02 12:54:09;;;;;;;5.63;3.90;;;;;;;;;;5033001;28;20120;-68
2022/05/02 12:56:08;;;;;;;7.55;4.55;;;;;;;;;;5026633;28;20045;-68
2022/05/02 13:01:24;;;;;;;8.10;4.35;;;;;;;;;;5033206;28;20114;-69
2022/05/02 13:04:02;;;;;;;9.45;5.32;;;;;;;;;;5034017;28;20052;-68
2022/05/02 13:06:27;;;;;;;9.43;5.05;;;;;;;;;;5034141;28;20037;-68
2022/05/02 13:09:16;;;;;;;7.82;4.97;;;;;;;;;;5034163;28;20021;-68
2022/05/02 13:11:42;;;;;;;9.05;4.55;;;;;;;;;;5027189;28;20549;-69
2022/05/02 13:14:09;;;;;;;7.32;4.78;;;;;;;;;;5033684;28;20083;-68
2022/05/02 13:16:44;;;;;;;6.65;4.53;;;;;;;;;;5034121;28;20435;-69
2022/05/02 13:19:10;;;;;;;7.40;4.63;;;;;;;;;;5033546;28;20033;-68
2022/05/02 13:21:37;;;;;;;7.95;4.97;;;;;;;;;;5063159;28;20029;-69
2022/05/02 13:24:12;;;;;;;9.55;5.03;;;;;;;;;;5033604;28;20458;-68
2022/05/02 13:26:56;;;;;;;7.28;4.03;;;;;;;;;;5033782;28;20064;-68
2022/05/02 13:30:00;;;;;;;8.75;4.63;;;;;;;;;;5065479;28;20041;-68
2022/05/02 13:32:27;;;;;;;6.72;4.07;;;;;;;;;;5022070;28;20041;-68
2022/05/02 13:35:11;;;;;;;7.75;4.57;;;;;;;;;;5033549;28;20042;-69
2022/05/02 13:37:51;;;;;;;8.18;4.90;;;;;;;;;;5023964;28;20041;-68
2022/05/02 13:40:20;;;;;;;7.07;4.05;;;;;;;;;;5033432;28;20164;-68
2022/05/02 13:42:59;;;;;;;7.35;4.18;;;;;;;;;;5033517;28;20033;-69
2022/05/02 13:45:41;;;;;;;6.57;3.72;;;;;;;;;;5032145;28;20041;-68
2022/05/02 13:48:37;;;;;;;8.95;4.90;;;;;;;;;;5033409;28;20116;-68
2022/05/02 13:51:19;;;;;;;7.53;4.63;;;;;;;;;;5024179;28;20081;-68
2022/05/02 13:53:54;;;;;;;9.02;5.05;;;;;;;;;;5023188;28;20098;-68
2022/05/02 13:57:05;;;;;;;7.57;4.72;;;;;;;;;;5025938;28;20037;-68
2022/05/02 13:59:48;;;;;;;6.38;4.28;;;;;;;;;;5035028;28;20077;-69
2022/05/02 14:02:44;;;;;;;8.48;5.13;;;;;;;;;;5032057;28;20129;-68
2022/05/02 14:05:24;;;;;;;7.50;5.00;;;;;;;;;;5026957;28;20116;-68
2022/05/02 14:07:59;;;;;;;8.55;5.25;;;;;;;;;;5033105;28;20068;-68
2022/05/02 14:10:26;;;;;;;8.63;5.13;;;;;;;;;;5033143;28;20420;-68
2022/05/02 14:12:52;;;;;;;8.82;5.78;;;;;;;;;;5033114;28;20453;-68
2022/05/02 14:15:19;;;;;;;7.53;4.80;;;;;;;;;;5033430;28;20064;-69
2022/05/02 14:17:55;;;;;;;9.68;5.10;;;;;;;;;;5033104;28;20057;-68
2022/05/02 14:20:33;;;;;;;9.35;5.43;;;;;;;;;;5020861;28;20025;-68
2022/05/02 14:22:59;;;;;;;8.88;5.03;;;;;;;;;;5028295;28;20400;-69
2022/05/02 14:25:30;;;;;;;7.38;4.90;;;;;;;;;;5032704;28;20513;-68
2022/05/02 14:28:00;;;;;;;10.10;4.57;;;;;;;;;;5030523;28;20465;-68
2022/05/02 14:30:26;;;;;;;9.90;6.60;;;;;;;;;;5033131;28;20814;-68
2022/05/02 14:32:54;;;;;;;10.40;7.05;;;;;;;;;;5032731;28;20030;-68
2022/05/02 14:35:23;;;;;;;11.38;7.40;;;;;;;;;;5024435;28;20084;-68
2022/05/02 14:37:52;;;;;;;10.63;6.82;;;;;;;;;;5028402;28;20038;-68
2022/05/02 14:40:17;;;;;;;12.20;7.10;;;;;;;;;;5032938;28;20033;-68
2022/05/02 14:42:43;;;;;;;13.27;8.23;;;;;;;;;;5033044;28;20037;-68
2022/05/02 14:45:11;;;;;;;11.80;7.35;;;;;;;;;;5032656;28;20482;-69
2022/05/02 14:47:37;;;;;;;11.43;6.65;;;;;;;;;;5032131;28;20037;-68
2022/05/02 14:50:04;;;;;;;14.02;7.07;;;;;;;;;;5032877;28;20116;-68
2022/05/02 14:52:37;;;;;;;11.20;6.97;;;;;;;;;;5032696;28;20116;-69
2022/05/02 14:55:05;;;;;;;12.20;7.80;;;;;;;;;;5032877;28;20029;-68
2022/05/02 14:57:31;;;;;;;11.82;7.28;;;;;;;;;;5033536;28;20045;-69
2022/05/02 15:00:02;;;;;;;15.02;7.85;;;;;;;;;;5039996;28;20469;-68
2022/05/02 15:02:28;;;;;;;11.10;7.03;;;;;;;;;;5028560;28;20052;-69
2022/05/02 15:05:01;;;;;;;11.98;7.03;;;;;;;;;;5039128;28;20034;-69
2022/05/02 15:07:33;;;;;;;13.35;6.53;;;;;;;;;;5027163;28;20026;-69
2022/05/02 15:10:31;;;;;;;14.15;7.28;;;;;;;;;;5032755;28;20399;-68
2022/05/02 15:13:10;;;;;;;12.07;6.90;;;;;;;;;;5048016;28;20049;-69
2022/05/02 15:15:51;;;;;;;13.60;6.78;;;;;;;;;;5048342;28;20030;-69
2022/05/02 15:21:39;;;;;;;13.63;7.07;;;;;;;;;;5045069;28;20082;-69
2022/05/02 15:24:43;;;;;;;12.55;6.82;;;;;;;;;;5047273;28;20204;-69
2022/05/02 15:38:59;;;;;;;19.10;9.00;;;;;;;;;;5035281;28;20045;-68
2022/05/02 15:41:40;;;;;;;14.95;8.68;;;;;;;;;;5035776;28;20026;-68
2022/05/02 15:44:14;;;;;;;14.90;8.40;;;;;;;;;;5030314;28;20052;-69
2022/05/02 15:46:42;;;;;;;16.20;8.48;;;;;;;;;;5039063;28;20052;-68
2022/05/02 15:49:10;;;;;;;16.30;8.63;;;;;;;;;;5036412;28;20042;-69